createdAt,value
2019-02-17T00:01:29.159Z,14.13
2019-02-17T00:04:00.331Z,13.75
2019-02-17T00:06:30.013Z,13.55
2019-02-17T00:08:59.719Z,14.80
2019-02-17T00:11:29.302Z,13.80
2019-02-17T00:13:59.474Z,13.75
2019-02-17T00:16:29.348Z,13.85
2019-02-17T00:18:59.290Z,12.95
2019-02-17T00:21:29.138Z,13.85
2019-02-17T00:23:58.935Z,13.28
2019-02-17T00:26:28.500Z,14.03
2019-02-17T00:28:59.756Z,13.58
2019-02-17T00:31:29.756Z,13.55
2019-02-17T00:33:59.403Z,13.65
2019-02-17T00:36:28.905Z,15.63
2019-02-17T00:38:58.530Z,14.95
2019-02-17T00:41:28.019Z,14.55
2019-02-17T00:43:57.673Z,15.03
2019-02-17T00:46:27.168Z,15.23
2019-02-17T00:48:56.973Z,16.27
2019-02-17T00:51:26.323Z,15.75
2019-02-17T00:53:56.193Z,15.13
2019-02-17T00:56:26.005Z,15.32
2019-02-17T00:58:55.951Z,16.37
2019-02-17T01:01:25.370Z,16.27
2019-02-17T01:03:55.001Z,17.65
2019-02-17T01:06:24.404Z,16.70
2019-02-17T01:08:56.285Z,16.60
2019-02-17T01:11:25.678Z,17.12
2019-02-17T01:13:55.179Z,17.37
2019-02-17T01:16:25.102Z,15.85
2019-02-17T01:18:54.745Z,14.63
2019-02-17T01:21:24.200Z,14.47
2019-02-17T01:23:53.925Z,16.15
2019-02-17T01:26:23.483Z,14.18
2019-02-17T01:28:53.522Z,14.93
2019-02-17T01:31:22.926Z,15.03
2019-02-17T01:33:52.653Z,14.90
2019-02-17T01:36:22.044Z,15.70
2019-02-17T01:38:51.751Z,14.65
2019-02-17T01:41:21.654Z,16.30
2019-02-17T01:43:51.421Z,15.32
2019-02-17T01:46:21.025Z,14.83
2019-02-17T01:48:50.442Z,15.38
2019-02-17T01:51:20.284Z,15.90
2019-02-17T01:53:49.683Z,13.75
2019-02-17T01:56:19.452Z,14.98
2019-02-17T01:58:49.183Z,16.05
2019-02-17T02:01:18.896Z,16.57
2019-02-17T02:03:48.512Z,16.45
2019-02-17T02:06:18.449Z,17.50
2019-02-17T02:08:48.466Z,16.25
2019-02-17T02:11:18.038Z,14.53
2019-02-17T02:13:47.440Z,15.78
2019-02-17T02:16:17.296Z,14.93
2019-02-17T02:18:46.748Z,15.55
2019-02-17T02:21:16.193Z,14.85
2019-02-17T02:23:46.036Z,15.23
2019-02-17T02:26:15.474Z,16.62
2019-02-17T02:28:47.183Z,16.37
2019-02-17T02:31:16.568Z,15.75
2019-02-17T02:33:48.776Z,15.38
2019-02-17T02:36:18.474Z,15.40
2019-02-17T02:38:48.276Z,15.32
2019-02-17T02:41:17.699Z,16.05
2019-02-17T02:43:47.483Z,15.85
2019-02-17T02:46:16.995Z,15.23
2019-02-17T02:48:46.381Z,15.30
2019-02-17T02:51:15.770Z,14.87
2019-02-17T02:53:45.354Z,15.85
2019-02-17T02:56:15.382Z,15.75
2019-02-17T02:58:44.829Z,14.87
2019-02-17T03:01:14.551Z,15.83
2019-02-17T03:03:46.104Z,14.93
2019-02-17T03:06:34.357Z,15.03
2019-02-17T03:09:05.953Z,15.32
2019-02-17T03:11:35.617Z,15.20
2019-02-17T03:14:05.367Z,14.53
2019-02-17T03:16:35.039Z,16.48
2019-02-17T03:19:05.093Z,15.75
2019-02-17T03:21:34.785Z,16.05
2019-02-17T03:24:04.409Z,15.72
2019-02-17T03:26:34.154Z,15.65
2019-02-17T03:29:03.668Z,15.03
2019-02-17T03:31:33.228Z,16.23
2019-02-17T03:34:03.047Z,16.48
2019-02-17T03:36:32.473Z,16.00
2019-02-17T03:39:02.264Z,15.35
2019-02-17T03:41:32.750Z,17.42
2019-02-17T03:44:02.466Z,17.48
2019-02-17T03:46:32.244Z,15.20
2019-02-17T03:49:01.903Z,16.87
2019-02-17T03:51:31.639Z,16.17
2019-02-17T03:54:01.228Z,16.55
2019-02-17T03:56:31.287Z,16.37
2019-02-17T03:59:01.141Z,16.25
2019-02-17T04:01:30.784Z,15.63
2019-02-17T04:04:00.579Z,15.03
2019-02-17T04:06:31.881Z,15.83
2019-02-17T04:09:01.872Z,16.15
2019-02-17T04:11:31.650Z,16.35
2019-02-17T04:14:01.258Z,18.85
2019-02-17T04:16:30.724Z,18.42
2019-02-17T04:19:00.786Z,19.52
2019-02-17T04:21:30.763Z,19.90
2019-02-17T04:24:02.293Z,19.40
2019-02-17T04:26:31.782Z,20.27
2019-02-17T04:29:01.395Z,17.60
2019-02-17T04:31:30.853Z,17.07
2019-02-17T04:34:00.226Z,17.65
2019-02-17T04:36:29.757Z,16.67
2019-02-17T04:38:59.484Z,16.75
2019-02-17T04:41:28.871Z,17.42
2019-02-17T04:43:58.211Z,16.95
2019-02-17T04:46:27.809Z,15.98
2019-02-17T04:48:57.314Z,16.27
2019-02-17T04:51:27.003Z,15.58
2019-02-17T04:53:56.961Z,15.20
2019-02-17T04:56:26.432Z,17.35
2019-02-17T04:58:56.265Z,14.65
2019-02-17T05:01:25.821Z,14.30
2019-02-17T05:03:55.699Z,14.73
2019-02-17T05:06:25.166Z,13.83
2019-02-17T05:08:54.603Z,15.05
2019-02-17T05:11:24.075Z,14.90
2019-02-17T05:13:53.546Z,15.43
2019-02-17T05:16:23.055Z,14.30
2019-02-17T05:18:52.815Z,14.43
2019-02-17T05:21:22.308Z,14.28
2019-02-17T05:23:51.648Z,13.28
2019-02-17T05:26:21.206Z,15.38
2019-02-17T05:28:50.707Z,15.03
2019-02-17T05:31:24.382Z,14.38
2019-02-17T05:33:56.225Z,14.45
2019-02-17T05:36:25.621Z,19.15
2019-02-17T05:38:55.200Z,20.30
2019-02-17T05:41:24.570Z,21.77
2019-02-17T05:43:54.319Z,23.05
2019-02-17T05:46:24.339Z,17.87
2019-02-17T05:48:53.776Z,20.05
2019-02-17T05:51:23.366Z,20.00
2019-02-17T05:53:52.748Z,17.77
2019-02-17T05:56:22.302Z,17.75
2019-02-17T05:58:52.265Z,18.87
2019-02-17T06:01:21.663Z,20.77
2019-02-17T06:03:51.598Z,20.48
2019-02-17T06:06:24.274Z,21.82
2019-02-17T06:08:53.889Z,22.82
2019-02-17T06:11:23.438Z,22.50
2019-02-17T06:13:52.821Z,19.10
2019-02-17T06:16:22.513Z,19.55
2019-02-17T06:18:51.933Z,20.05
2019-02-17T06:21:23.317Z,20.60
2019-02-17T06:23:53.023Z,18.92
2019-02-17T06:26:22.405Z,19.17
2019-02-17T06:28:51.977Z,19.55
2019-02-17T06:31:21.484Z,19.12
2019-02-17T06:33:51.249Z,21.12
2019-02-17T06:36:20.674Z,17.67
2019-02-17T06:38:50.077Z,18.27
2019-02-17T06:41:19.633Z,20.20
2019-02-17T06:43:48.972Z,19.90
2019-02-17T06:46:22.033Z,18.02
2019-02-17T06:48:51.599Z,17.92
2019-02-17T06:51:21.167Z,17.67
2019-02-17T06:53:50.562Z,17.20
2019-02-17T06:56:42.607Z,18.23
2019-02-17T06:59:11.962Z,20.10
2019-02-17T07:01:41.478Z,16.50
2019-02-17T07:04:11.033Z,17.23
2019-02-17T07:06:47.053Z,19.27
2019-02-17T07:09:16.660Z,17.27
2019-02-17T07:11:46.542Z,19.00
2019-02-17T07:14:16.142Z,20.05
2019-02-17T07:16:45.820Z,17.87
2019-02-17T07:19:15.177Z,18.25
2019-02-17T07:21:44.583Z,16.45
2019-02-17T07:24:17.349Z,16.00
2019-02-17T07:26:46.851Z,16.52
2019-02-17T07:29:17.991Z,16.93
2019-02-17T07:31:47.422Z,15.23
2019-02-17T07:34:17.153Z,16.62
2019-02-17T07:36:46.600Z,15.23
2019-02-17T07:39:15.959Z,17.15
2019-02-17T07:41:45.603Z,15.95
2019-02-17T07:44:15.251Z,16.65
2019-02-17T07:46:45.113Z,17.52
2019-02-17T07:49:14.853Z,16.12
2019-02-17T07:51:44.250Z,19.35
2019-02-17T07:54:13.845Z,17.62
2019-02-17T07:56:43.410Z,17.00
2019-02-17T07:59:13.158Z,17.12
2019-02-17T08:01:45.273Z,16.65
2019-02-17T08:04:15.588Z,16.00
2019-02-17T08:06:45.021Z,16.52
2019-02-17T08:09:14.916Z,16.95
2019-02-17T08:11:44.295Z,16.15
2019-02-17T08:14:13.893Z,17.30
2019-02-17T08:16:43.573Z,17.25
2019-02-17T08:19:13.184Z,17.50
2019-02-17T08:21:42.544Z,17.30
2019-02-17T08:24:12.244Z,18.20
2019-02-17T08:26:41.645Z,16.85
2019-02-17T08:29:11.153Z,18.52
2019-02-17T08:31:40.876Z,19.23
2019-02-17T08:34:10.230Z,17.17
2019-02-17T08:36:40.198Z,17.95
2019-02-17T08:39:09.606Z,18.92
2019-02-17T08:41:39.627Z,16.82
2019-02-17T08:44:09.087Z,19.55
2019-02-17T08:46:38.545Z,17.87
2019-02-17T08:49:08.456Z,17.60
2019-02-17T08:51:37.952Z,18.85
2019-02-17T08:54:07.340Z,17.23
2019-02-17T08:56:36.931Z,21.27
2019-02-17T08:59:07.047Z,19.77
2019-02-17T09:01:36.565Z,22.55
2019-02-17T09:04:06.067Z,23.57
2019-02-17T09:06:35.764Z,22.77
2019-02-17T09:09:06.342Z,22.55
2019-02-17T09:11:35.819Z,18.00
2019-02-17T09:14:05.511Z,20.25
2019-02-17T09:16:35.158Z,15.55
2019-02-17T09:19:05.029Z,16.75
2019-02-17T09:21:34.417Z,18.00
2019-02-17T09:24:03.906Z,17.20
2019-02-17T09:26:33.749Z,20.08
2019-02-17T09:29:03.173Z,17.60
2019-02-17T09:31:32.767Z,17.35
2019-02-17T09:34:02.583Z,19.48
2019-02-17T09:36:32.701Z,18.25
2019-02-17T09:39:02.459Z,18.75
2019-02-17T09:41:31.919Z,17.98
2019-02-17T09:44:01.596Z,17.73
2019-02-17T09:46:31.342Z,17.37
2019-02-17T09:49:00.969Z,16.95
2019-02-17T09:51:30.739Z,20.43
2019-02-17T09:54:00.340Z,18.12
2019-02-17T09:56:29.973Z,22.30
2019-02-17T09:58:59.546Z,18.23
2019-02-17T10:01:29.288Z,19.17
2019-02-17T10:03:58.786Z,18.50
2019-02-17T10:06:28.497Z,19.07
2019-02-17T10:08:58.187Z,19.35
2019-02-17T10:11:27.758Z,18.92
2019-02-17T10:13:59.832Z,20.62
2019-02-17T10:16:30.140Z,19.70
2019-02-17T10:18:59.749Z,21.50
2019-02-17T10:21:29.284Z,21.77
2019-02-17T10:23:59.068Z,23.98
2019-02-17T10:26:28.672Z,24.00
2019-02-17T10:28:59.703Z,22.90
2019-02-17T10:31:29.473Z,23.05
2019-02-17T10:33:59.066Z,23.77
2019-02-17T10:36:28.561Z,23.90
2019-02-17T10:38:58.532Z,23.70
2019-02-17T10:41:28.028Z,23.50
2019-02-17T10:43:57.468Z,22.25
2019-02-17T10:46:27.008Z,22.32
2019-02-17T10:48:56.527Z,23.57
2019-02-17T10:51:28.990Z,19.87
2019-02-17T10:54:05.750Z,20.45
2019-02-17T10:56:35.097Z,20.43
2019-02-17T10:59:04.549Z,20.25
2019-02-17T11:01:34.465Z,16.27
2019-02-17T11:04:11.436Z,18.30
2019-02-17T11:06:40.844Z,18.07
2019-02-17T11:09:29.979Z,20.92
2019-02-17T11:11:59.456Z,18.05
2019-02-17T11:14:29.082Z,17.35
2019-02-17T11:16:58.996Z,15.45
2019-02-17T11:19:28.421Z,17.98
2019-02-17T11:21:58.355Z,18.40
2019-02-17T11:24:27.857Z,21.48
2019-02-17T11:26:57.500Z,19.17
2019-02-17T11:29:26.953Z,19.20
2019-02-17T11:31:59.234Z,20.90
2019-02-17T11:34:28.632Z,20.17
2019-02-17T11:36:58.443Z,19.75
2019-02-17T11:39:28.157Z,18.75
2019-02-17T11:41:57.679Z,18.25
2019-02-17T11:44:27.182Z,18.52
2019-02-17T11:46:56.566Z,15.65
2019-02-17T11:49:25.978Z,15.45
2019-02-17T11:51:55.751Z,13.03
2019-02-17T11:54:25.188Z,14.10
2019-02-17T11:56:55.940Z,15.50
2019-02-17T11:59:25.439Z,12.75
2019-02-17T12:01:54.861Z,11.57
2019-02-17T12:04:26.222Z,13.10
2019-02-17T12:06:56.204Z,14.87
2019-02-17T12:09:25.935Z,15.08
2019-02-17T12:11:55.387Z,13.75
2019-02-17T12:14:32.673Z,12.18
2019-02-17T12:17:02.469Z,11.50
2019-02-17T12:19:32.051Z,12.88
2019-02-17T12:22:16.460Z,12.75
2019-02-17T12:24:50.700Z,11.43
2019-02-17T12:27:25.058Z,11.55
2019-02-17T12:30:09.854Z,9.68
2019-02-17T12:32:39.335Z,8.00
2019-02-17T12:35:09.417Z,8.45
2019-02-17T12:37:40.320Z,9.53
2019-02-17T12:40:12.021Z,10.30
2019-02-17T12:42:41.646Z,9.48
2019-02-17T12:45:17.485Z,9.65
2019-02-17T12:47:45.123Z,8.65
2019-02-17T12:50:14.523Z,9.03
2019-02-17T12:52:47.294Z,8.75
2019-02-17T12:55:15.026Z,8.75
2019-02-17T12:57:44.750Z,8.60
2019-02-17T13:00:17.249Z,8.13
2019-02-17T13:02:47.126Z,7.97
2019-02-17T13:05:16.665Z,7.03
2019-02-17T13:07:46.345Z,7.03
2019-02-17T13:10:15.788Z,8.03
2019-02-17T13:12:45.372Z,7.72
2019-02-17T13:15:15.023Z,7.97
2019-02-17T13:17:44.468Z,6.30
2019-02-17T13:20:14.983Z,8.73
2019-02-17T13:22:44.405Z,9.03
2019-02-17T13:25:14.631Z,7.50
2019-02-17T13:27:44.186Z,8.05
2019-02-17T13:30:16.547Z,9.63
2019-02-17T13:32:46.399Z,13.38
2019-02-17T13:35:15.834Z,10.58
2019-02-17T13:37:45.951Z,10.93
2019-02-17T13:40:15.538Z,9.95
2019-02-17T13:42:44.929Z,10.30
2019-02-17T13:45:14.568Z,14.95
2019-02-17T13:47:44.074Z,15.45
2019-02-17T13:50:14.023Z,12.30
2019-02-17T13:52:43.828Z,11.85
2019-02-17T13:55:13.664Z,13.55
2019-02-17T13:57:43.514Z,10.78
2019-02-17T14:00:15.436Z,11.65
2019-02-17T14:02:45.237Z,14.68
2019-02-17T14:05:15.124Z,14.10
2019-02-17T14:07:44.808Z,10.38
2019-02-17T14:10:14.758Z,10.13
2019-02-17T14:12:44.244Z,10.43
2019-02-17T14:15:14.543Z,12.47
2019-02-17T14:17:44.167Z,12.45
2019-02-17T14:20:13.799Z,10.63
2019-02-17T14:22:43.552Z,8.95
2019-02-17T14:25:13.212Z,10.98
2019-02-17T14:27:42.942Z,11.03
2019-02-17T14:30:13.373Z,10.38
2019-02-17T14:32:43.312Z,10.23
2019-02-17T14:35:13.142Z,10.15
2019-02-17T14:37:44.587Z,9.05
2019-02-17T14:40:14.376Z,12.05
2019-02-17T14:42:43.729Z,10.35
2019-02-17T14:45:13.562Z,9.30
2019-02-17T14:47:43.176Z,8.63
2019-02-17T14:50:13.333Z,10.78
2019-02-17T14:52:46.394Z,10.45
2019-02-17T14:55:16.227Z,11.22
2019-02-17T14:57:45.642Z,11.70
2019-02-17T15:00:17.514Z,9.33
2019-02-17T15:02:46.910Z,12.63
2019-02-17T15:05:16.321Z,10.08
2019-02-17T15:07:46.052Z,10.98
2019-02-17T15:10:15.776Z,10.15
2019-02-17T15:12:45.434Z,10.53
2019-02-17T15:15:14.907Z,11.83
2019-02-17T15:17:44.565Z,10.15
2019-02-17T15:20:14.545Z,10.30
2019-02-17T15:22:44.442Z,13.10
2019-02-17T15:25:14.183Z,10.58
2019-02-17T15:27:44.010Z,15.32
2019-02-17T15:30:14.060Z,10.13
2019-02-17T15:32:43.535Z,9.43
2019-02-17T15:35:13.173Z,8.68
2019-02-17T15:37:43.433Z,12.70
2019-02-17T15:40:13.041Z,9.33
2019-02-17T15:42:43.473Z,9.98
2019-02-17T15:45:13.396Z,7.67
2019-02-17T15:47:43.306Z,8.10
2019-02-17T15:50:13.492Z,8.78
2019-02-17T15:52:42.941Z,10.63
2019-02-17T15:55:12.686Z,10.88
2019-02-17T15:57:42.362Z,11.85
2019-02-17T16:00:13.700Z,8.65
2019-02-17T16:02:43.237Z,11.78
2019-02-17T16:05:13.082Z,10.85
2019-02-17T16:07:42.492Z,10.30
2019-02-17T16:10:11.965Z,10.68
2019-02-17T16:12:41.667Z,9.08
2019-02-17T16:15:13.516Z,9.40
2019-02-17T16:17:42.973Z,10.38
2019-02-17T16:20:13.430Z,9.80
2019-02-17T16:22:43.324Z,12.23
2019-02-17T16:25:13.410Z,7.92
2019-02-17T16:27:43.214Z,10.28
2019-02-17T16:30:14.336Z,11.38
2019-02-17T16:32:44.508Z,10.53
2019-02-17T16:35:14.657Z,10.15
2019-02-17T16:37:44.480Z,10.90
2019-02-17T16:40:14.345Z,14.13
2019-02-17T16:42:44.909Z,9.75
2019-02-17T16:45:15.170Z,8.00
2019-02-17T16:47:44.635Z,11.85
2019-02-17T16:50:16.868Z,13.38
2019-02-17T16:52:46.897Z,10.38
2019-02-17T16:55:16.589Z,14.43
2019-02-17T16:57:46.832Z,9.70
2019-02-17T17:00:22.613Z,12.63
2019-02-17T17:02:53.004Z,9.38
2019-02-17T17:05:24.348Z,12.07
2019-02-17T17:07:54.097Z,14.73
2019-02-17T17:10:24.193Z,16.57
2019-02-17T17:12:53.918Z,16.95
2019-02-17T17:15:23.470Z,17.17
2019-02-17T17:17:53.322Z,18.05
2019-02-17T17:20:22.825Z,17.07
2019-02-17T17:22:52.700Z,17.45
2019-02-17T17:25:22.104Z,18.23
2019-02-17T17:27:51.705Z,18.15
2019-02-17T17:30:21.518Z,17.45
2019-02-17T17:32:51.207Z,16.80
2019-02-17T17:35:20.950Z,17.75
2019-02-17T17:37:50.770Z,16.85
2019-02-17T17:40:20.687Z,17.90
2019-02-17T17:42:50.261Z,17.45
2019-02-17T17:45:19.902Z,17.57
2019-02-17T17:47:49.495Z,18.20
2019-02-17T17:50:19.647Z,17.57
2019-02-17T17:52:49.230Z,19.48
2019-02-17T17:55:18.835Z,18.57
2019-02-17T17:57:50.121Z,19.10
2019-02-17T18:00:20.797Z,18.37
2019-02-17T18:02:50.414Z,18.48
2019-02-17T18:05:21.561Z,19.92
2019-02-17T18:07:51.610Z,18.32
2019-02-17T18:10:21.723Z,20.02
2019-02-17T18:12:52.062Z,20.20
2019-02-17T18:15:21.697Z,19.17
2019-02-17T18:17:54.782Z,20.43
2019-02-17T18:20:23.756Z,20.40
2019-02-17T18:22:53.575Z,19.98
2019-02-17T18:25:23.822Z,20.55
2019-02-17T18:27:53.924Z,22.42
2019-02-17T18:30:23.516Z,21.50
2019-02-17T18:32:53.475Z,20.35
2019-02-17T18:35:22.973Z,21.48
2019-02-17T18:37:52.584Z,20.90
2019-02-17T18:40:22.656Z,21.55
2019-02-17T18:42:52.807Z,20.50
2019-02-17T18:45:22.576Z,20.10
2019-02-17T18:47:52.126Z,19.73
2019-02-17T18:50:22.875Z,20.25
2019-02-17T18:52:53.226Z,21.37
2019-02-17T18:55:23.758Z,21.37
2019-02-17T18:57:53.679Z,21.17
2019-02-17T19:00:23.483Z,22.10
2019-02-17T19:02:53.683Z,21.15
2019-02-17T19:05:31.687Z,21.82
2019-02-17T19:07:54.954Z,20.77
2019-02-17T19:10:24.749Z,22.27
2019-02-17T19:12:54.967Z,20.88
2019-02-17T19:15:24.739Z,20.82
2019-02-17T19:17:54.602Z,20.75
2019-02-17T19:20:24.717Z,21.20
2019-02-17T19:22:54.564Z,20.45
2019-02-17T19:25:24.345Z,20.27
2019-02-17T19:27:53.930Z,21.12
2019-02-17T19:30:24.005Z,21.50
2019-02-17T19:32:53.604Z,20.85
2019-02-17T19:35:23.051Z,21.40
2019-02-17T19:37:52.913Z,21.05
2019-02-17T19:40:22.682Z,20.90
2019-02-17T19:42:52.444Z,22.45
2019-02-17T19:45:21.859Z,22.60
2019-02-17T19:47:51.711Z,23.32
2019-02-17T19:50:21.151Z,23.18
2019-02-17T19:52:51.536Z,23.22
2019-02-17T19:55:21.373Z,23.20
2019-02-17T19:57:51.193Z,23.42
2019-02-17T20:00:20.850Z,23.62
2019-02-17T20:03:12.930Z,24.50
2019-02-17T20:05:52.086Z,23.55
2019-02-17T20:08:17.432Z,22.07
2019-02-17T20:10:47.168Z,23.60
2019-02-17T20:13:17.194Z,22.42
2019-02-17T20:15:48.535Z,22.85
2019-02-17T20:18:18.063Z,22.73
2019-02-17T20:20:47.626Z,22.20
2019-02-17T20:23:17.648Z,20.17
2019-02-17T20:25:47.395Z,20.25
2019-02-17T20:28:17.302Z,20.82
2019-02-17T20:30:46.866Z,18.73
2019-02-17T20:33:16.865Z,20.32
2019-02-17T20:35:46.781Z,20.70
2019-02-17T20:38:16.417Z,18.67
2019-02-17T20:40:45.848Z,15.43
2019-02-17T20:43:16.774Z,15.23
2019-02-17T20:45:47.666Z,14.83
2019-02-17T20:48:17.591Z,14.47
2019-02-17T20:50:47.231Z,15.00
2019-02-17T20:53:16.714Z,14.95
2019-02-17T20:55:46.571Z,15.10
2019-02-17T20:58:16.334Z,14.83
2019-02-17T21:00:46.054Z,18.00
2019-02-17T21:03:16.206Z,14.65
2019-02-17T21:05:45.658Z,14.87
2019-02-17T21:08:15.333Z,16.97
2019-02-17T21:10:45.137Z,16.35
2019-02-17T21:13:14.944Z,16.52
2019-02-17T21:15:44.791Z,15.63
2019-02-17T21:18:14.552Z,14.40
2019-02-17T21:20:44.550Z,15.55
2019-02-17T21:23:13.922Z,16.32
2019-02-17T21:25:43.806Z,15.08
2019-02-17T21:28:13.288Z,15.13
2019-02-17T21:30:42.676Z,14.93
2019-02-17T21:33:12.342Z,14.07
2019-02-17T21:35:41.861Z,15.08
2019-02-17T21:38:12.689Z,14.18
2019-02-17T21:40:42.327Z,14.30
2019-02-17T21:43:11.873Z,14.18
2019-02-17T21:45:41.480Z,14.63
2019-02-17T21:48:11.186Z,13.03
2019-02-17T21:50:41.082Z,13.88
2019-02-17T21:53:20.558Z,13.58
2019-02-17T21:55:42.252Z,14.28
2019-02-17T21:58:11.669Z,12.10
2019-02-17T22:00:41.248Z,12.58
2019-02-17T22:03:11.213Z,13.18
2019-02-17T22:05:41.225Z,12.53
2019-02-17T22:08:10.762Z,11.80
2019-02-17T22:10:40.586Z,13.32
2019-02-17T22:13:10.157Z,12.10
2019-02-17T22:15:39.626Z,12.80
2019-02-17T22:18:09.428Z,12.25
2019-02-17T22:20:39.878Z,12.50
2019-02-17T22:23:09.543Z,12.80
2019-02-17T22:25:39.063Z,11.75
2019-02-17T22:28:08.408Z,13.90
2019-02-17T22:30:37.833Z,12.95
2019-02-17T22:33:07.408Z,13.22
2019-02-17T22:35:37.047Z,12.60
2019-02-17T22:38:06.603Z,13.00
2019-02-17T22:40:36.473Z,11.68
2019-02-17T22:43:06.358Z,13.00
2019-02-17T22:45:35.816Z,13.03
2019-02-17T22:48:05.619Z,12.98
2019-02-17T22:50:35.092Z,12.23
2019-02-17T22:53:04.968Z,12.78
2019-02-17T22:55:35.047Z,13.03
2019-02-17T22:58:04.834Z,13.15
2019-02-17T23:00:58.564Z,13.22
2019-02-17T23:03:28.998Z,12.90
2019-02-17T23:05:58.696Z,12.45
2019-02-17T23:08:29.670Z,12.40
2019-02-17T23:11:01.116Z,12.47
2019-02-17T23:13:30.854Z,12.85
2019-02-17T23:16:00.254Z,12.73
2019-02-17T23:18:30.105Z,13.30
2019-02-17T23:20:59.729Z,12.75
2019-02-17T23:23:29.581Z,12.90
2019-02-17T23:25:59.155Z,12.55
2019-02-17T23:28:28.668Z,12.60
2019-02-17T23:30:58.037Z,13.50
2019-02-17T23:33:27.756Z,12.55
2019-02-17T23:35:57.314Z,12.28
2019-02-17T23:38:26.862Z,12.70
2019-02-17T23:40:56.470Z,12.82
2019-02-17T23:43:26.011Z,14.23
2019-02-17T23:45:55.519Z,12.78
2019-02-17T23:48:25.139Z,12.65
2019-02-17T23:50:54.525Z,12.47
2019-02-17T23:53:24.050Z,12.98
2019-02-17T23:55:53.678Z,12.93
2019-02-17T23:58:23.125Z,12.33
